Map

Track Data

SID SEASON NUMBER BASIN SUBBASIN NAME ISO_TIME NATURE LAT LON WMO_WIND WMO_PRES WMO_AGENCY TRACK_TYPE DIST2LAND LANDFALL IFLAG USA_AGENCY USA_ATCF_ID USA_LAT USA_LON USA_RECORD USA_STATUS USA_WIND USA_PRES USA_SSHS USA_R34_NE USA_R34_SE USA_R34_SW USA_R34_NW USA_R50_NE USA_R50_SE USA_R50_SW USA_R50_NW USA_R64_NE USA_R64_SE USA_R64_SW USA_R64_NW USA_POCI USA_ROCI USA_RMW USA_EYE TOKYO_LAT TOKYO_LON TOKYO_GRADE TOKYO_WIND TOKYO_PRES TOKYO_R50_DIR TOKYO_R50_LONG TOKYO_R50_SHORT TOKYO_R30_DIR TOKYO_R30_LONG TOKYO_R30_SHORT TOKYO_LAND CMA_LAT CMA_LON CMA_CAT CMA_WIND CMA_PRES HKO_LAT HKO_LON HKO_CAT HKO_WIND HKO_PRES NEWDELHI_LAT NEWDELHI_LON NEWDELHI_GRADE NEWDELHI_WIND NEWDELHI_PRES NEWDELHI_CI NEWDELHI_DP NEWDELHI_POCI REUNION_LAT REUNION_LON REUNION_TYPE REUNION_WIND REUNION_PRES REUNION_TNUM REUNION_CI REUNION_RMW REUNION_R34_NE REUNION_R34_SE REUNION_R34_SW REUNION_R34_NW REUNION_R50_NE REUNION_R50_SE REUNION_R50_SW REUNION_R50_NW REUNION_R64_NE REUNION_R64_SE REUNION_R64_SW REUNION_R64_NW BOM_LAT BOM_LON BOM_TYPE BOM_WIND BOM_PRES BOM_TNUM BOM_CI BOM_RMW BOM_R34_NE BOM_R34_SE BOM_R34_SW BOM_R34_NW BOM_R50_NE BOM_R50_SE BOM_R50_SW BOM_R50_NW BOM_R64_NE BOM_R64_SE BOM_R64_SW BOM_R64_NW BOM_ROCI BOM_POCI BOM_EYE BOM_POS_METHOD BOM_PRES_METHOD NADI_LAT NADI_LON NADI_CAT NADI_WIND NADI_PRES WELLINGTON_LAT WELLINGTON_LON WELLINGTON_WIND WELLINGTON_PRES DS824_LAT DS824_LON DS824_STAGE DS824_WIND DS824_PRES TD9636_LAT TD9636_LON TD9636_STAGE TD9636_WIND TD9636_PRES TD9635_LAT TD9635_LON TD9635_WIND TD9635_PRES TD9635_ROCI NEUMANN_LAT NEUMANN_LON NEUMANN_CLASS NEUMANN_WIND NEUMANN_PRES MLC_LAT MLC_LON MLC_CLASS MLC_WIND MLC_PRES USA_GUST BOM_GUST BOM_GUST_PER REUNION_GUST REUNION_GUST_PER USA_SEAHGT USA_SEARAD_NE USA_SEARAD_SE USA_SEARAD_SW USA_SEARAD_NW STORM_SPEED STORM_DIR
1885021S16075 1885 5 SI MM NOT_NAMED 1885-01-21 06:00:00 NR -15.9000 75.2000 main 1902 1858 __________O___ -1 -15.9000 75.2000 7 8 258
1885021S16075 1885 5 SI MM NOT_NAMED 1885-01-21 09:00:00 NR -15.9867 74.7784 main 1858 1814 __________P___ -1 -15.9867 74.7784 7 8 257
1885021S16075 1885 5 SI MM NOT_NAMED 1885-01-21 12:00:00 NR -16.0784 74.3652 main 1814 1770 __________P___ -1 -16.0784 74.3652 7 8 256
1885021S16075 1885 5 SI MM NOT_NAMED 1885-01-21 15:00:00 NR -16.1808 73.9695 main 1770 1726 __________P___ -1 -16.1808 73.9695 7 8 253
1885021S16075 1885 5 SI MM NOT_NAMED 1885-01-21 18:00:00 NR -16.3000 73.6000 main 1726 1692 __________O___ -1 -16.3000 73.6000 7 7 249
1885021S16075 1885 5 SI MM NOT_NAMED 1885-01-21 21:00:00 NR -16.4393 73.2615 main 1692 1655 __________P___ -1 -16.4393 73.2615 7 7 245
1885021S16075 1885 5 SI MM NOT_NAMED 1885-01-22 00:00:00 NR -16.5919 72.9424 main 1644 1611 __________P___ -1 -16.5919 72.9424 7 7 243
1885021S16075 1885 5 SI MM NOT_NAMED 1885-01-22 03:00:00 NR -16.7486 72.6271 main 1611 1574 __________P___ -1 -16.7486 72.6271 7 7 243
1885021S16075 1885 5 SI MM NOT_NAMED 1885-01-22 06:00:00 NR -16.9000 72.3000 main 1574 1540 __________O___ -1 -16.9000 72.3000 7 7 247
1885021S16075 1885 5 SI MM NOT_NAMED 1885-01-22 09:00:00 NR -17.0240 71.9391 main 1530 1496 __________P___ -1 -17.0240 71.9391 7 7 251
1885021S16075 1885 5 SI MM NOT_NAMED 1885-01-22 12:00:00 NR -17.1424 71.5646 main 1496 1449 __________P___ -1 -17.1424 71.5646 7 8 252
1885021S16075 1885 5 SI MM NOT_NAMED 1885-01-22 15:00:00 NR -17.2646 71.1828 main 1449 1405 __________P___ -1 -17.2646 71.1828 7 8 251
1885021S16075 1885 5 SI MM NOT_NAMED 1885-01-22 18:00:00 NR -17.4000 70.8000 main 1405 1358 __________O___ -1 -17.4000 70.8000 7 8 247
1885021S16075 1885 5 SI MM NOT_NAMED 1885-01-22 21:00:00 NR -17.5644 70.4290 main 1358 1325 __________P___ -1 -17.5644 70.4290 7 8 244
1885021S16075 1885 5 SI MM NOT_NAMED 1885-01-23 00:00:00 NR -17.7421 70.0574 main 1325 1278 __________P___ -1 -17.7421 70.0574 7 8 243
1885021S16075 1885 5 SI MM NOT_NAMED 1885-01-23 03:00:00 NR -17.9238 69.6821 main 1278 1232 __________P___ -1 -17.9238 69.6821 7 8 244
1885021S16075 1885 5 SI MM NOT_NAMED 1885-01-23 06:00:00 NR -18.1000 69.3000 main 1232 1188 __________O___ -1 -18.1000 69.3000 7 8 246
1885021S16075 1885 5 SI MM NOT_NAMED 1885-01-23 09:00:00 NR -18.2448 68.9108 main 1188 1142 __________P___ -1 -18.2448 68.9108 7 8 249
1885021S16075 1885 5 SI MM NOT_NAMED 1885-01-23 12:00:00 NR -18.3847 68.5143 main 1142 1098 __________P___ -1 -18.3847 68.5143 7 8 249
1885021S16075 1885 5 SI MM NOT_NAMED 1885-01-23 15:00:00 NR -18.5322 68.1107 main 1098 1052 __________P___ -1 -18.5322 68.1107 7 8 248
1885021S16075 1885 5 SI MM NOT_NAMED 1885-01-23 18:00:00 NR -18.7000 67.7000 main 1052 1007 __________O___ -1 -18.7000 67.7000 7 9 244
1885021S16075 1885 5 SI MM NOT_NAMED 1885-01-23 21:00:00 NR -18.9239 67.2543 main 1007 949 __________P___ -1 -18.9239 67.2543 7 10 241
1885021S16075 1885 5 SI MM NOT_NAMED 1885-01-24 00:00:00 NR -19.1653 66.8058 main 949 904 __________P___ -1 -19.1653 66.8058 7 10 240
1885021S16075 1885 5 SI MM NOT_NAMED 1885-01-24 03:00:00 NR -19.3990 66.3793 main 904 860 __________P___ -1 -19.3990 66.3793 7 9 240
1885021S16075 1885 5 SI MM NOT_NAMED 1885-01-24 06:00:00 NR -19.6000 66.0000 main 860 828 __________O___ -1 -19.6000 66.0000 7 7 242
1885021S16075 1885 5 SI MM NOT_NAMED 1885-01-24 09:00:00 NR -19.7354 65.6990 main 828 806 __________P___ -1 -19.7354 65.6990 7 6 246
1885021S16075 1885 5 SI MM NOT_NAMED 1885-01-24 12:00:00 NR -19.8368 65.4467 main 795 773 __________P___ -1 -19.8368 65.4467 7 5 248
1885021S16075 1885 5 SI MM NOT_NAMED 1885-01-24 15:00:00 NR -19.9199 65.2211 main 773 752 __________P___ -1 -19.9199 65.2211 7 5 249
1885021S16075 1885 5 SI MM NOT_NAMED 1885-01-24 18:00:00 NR -20.0000 65.0000 main 752 730 __________O___ -1 -20.0000 65.0000 7 5 248
1885021S16075 1885 5 SI MM NOT_NAMED 1885-01-24 21:00:00 NR -20.0875 64.7699 main 730 709 __________P___ -1 -20.0875 64.7699 7 5 248
1885021S16075 1885 5 SI MM NOT_NAMED 1885-01-25 00:00:00 NR -20.1770 64.5369 main 698 677 __________P___ -1 -20.1770 64.5369 7 5 247
1885021S16075 1885 5 SI MM NOT_NAMED 1885-01-25 03:00:00 NR -20.2780 64.2855 main 677 646 __________P___ -1 -20.2780 64.2855 7 6 246
1885021S16075 1885 5 SI MM NOT_NAMED 1885-01-25 06:00:00 NR -20.4000 64.0000 main 646 615 __________O___ -1 -20.4000 64.0000 7 6 245
1885021S16075 1885 5 SI MM NOT_NAMED 1885-01-25 09:00:00 NR -20.5494 63.6650 main 615 574 __________P___ -1 -20.5494 63.6650 7 7 244
1885021S16075 1885 5 SI MM NOT_NAMED 1885-01-25 12:00:00 NR -20.7200 63.2949 main 574 534 __________P___ -1 -20.7200 63.2949 7 8 243
1885021S16075 1885 5 SI MM NOT_NAMED 1885-01-25 15:00:00 NR -20.9056 62.9024 main 534 496 __________P___ -1 -20.9056 62.9024 7 8 243
1885021S16075 1885 5 SI MM NOT_NAMED 1885-01-25 18:00:00 NR -21.1000 62.5000 main 496 460 __________O___ -1 -21.1000 62.5000 7 8 242
1885021S16075 1885 5 SI MM NOT_NAMED 1885-01-25 21:00:00 NR -21.2967 62.1071 main 460 426 __________P___ -1 -21.2967 62.1071 7 8 242
1885021S16075 1885 5 SI MM NOT_NAMED 1885-01-26 00:00:00 NR -21.4997 61.7074 main 426 395 __________P___ -1 -21.4997 61.7074 7 9 241
1885021S16075 1885 5 SI MM NOT_NAMED 1885-01-26 03:00:00 NR -21.7029 61.3039 main 395 366 __________P___ -1 -21.7029 61.3039 7 9 242
1885021S16075 1885 5 SI MM NOT_NAMED 1885-01-26 06:00:00 NR -21.9000 60.9000 main 366 340 __________O___ -1 -21.9000 60.9000 7 8 243
1885021S16075 1885 5 SI MM NOT_NAMED 1885-01-26 09:00:00 NR -22.0819 60.4996 main 340 312 __________P___ -1 -22.0819 60.4996 7 8 244
1885021S16075 1885 5 SI MM NOT_NAMED 1885-01-26 12:00:00 NR -22.2571 60.0995 main 319 296 __________P___ -1 -22.2571 60.0995 7 8 245
1885021S16075 1885 5 SI MM NOT_NAMED 1885-01-26 15:00:00 NR -22.4288 59.6996 main 296 284 __________P___ -1 -22.4288 59.6996 7 8 245
1885021S16075 1885 5 SI MM NOT_NAMED 1885-01-26 18:00:00 NR -22.6000 59.3000 main 287 275 __________O___ -1 -22.6000 59.3000 7 8 245
1885021S16075 1885 5 SI MM NOT_NAMED 1885-01-26 21:00:00 NR -22.7665 58.9035 main 285 277 __________P___ -1 -22.7665 58.9035 7 8 245
1885021S16075 1885 5 SI MM NOT_NAMED 1885-01-27 00:00:00 NR -22.9345 58.5067 main 280 280 __________P___ -1 -22.9345 58.5067 7 8 245
1885021S16075 1885 5 SI MM NOT_NAMED 1885-01-27 03:00:00 NR -23.1102 58.1066 main 293 292 __________P___ -1 -23.1102 58.1066 7 8 244
1885021S16075 1885 5 SI MM NOT_NAMED 1885-01-27 06:00:00 NR -23.3000 57.7000 main 296 286 __________O___ -1 -23.3000 57.7000 7 9 242
1885021S16075 1885 5 SI MM NOT_NAMED 1885-01-27 09:00:00 NR -23.5147 57.2701 main 290 284 __________P___ -1 -23.5147 57.2701 7 9 241
1885021S16075 1885 5 SI MM NOT_NAMED 1885-01-27 12:00:00 NR -23.7425 56.8351 main 285 285 __________P___ -1 -23.7425 56.8351 7 9 240
1885021S16075 1885 5 SI MM NOT_NAMED 1885-01-27 15:00:00 NR -23.9741 56.4076 main 302 299 __________P___ -1 -23.9741 56.4076 7 9 239
1885021S16075 1885 5 SI MM NOT_NAMED 1885-01-27 18:00:00 NR -24.2000 56.0000 main 315 314 __________O___ -1 -24.2000 56.0000 7 8 238
1885021S16075 1885 5 SI MM NOT_NAMED 1885-01-27 21:00:00 NR -24.4132 55.6217 main 335 335 __________P___ -1 -24.4132 55.6217 7 8 238
1885021S16075 1885 5 SI MM NOT_NAMED 1885-01-28 00:00:00 NR -24.6153 55.2679 main 359 359 __________P___ -1 -24.6153 55.2679 7 7 238
1885021S16075 1885 5 SI MM NOT_NAMED 1885-01-28 03:00:00 NR -24.8097 54.9302 main 386 386 __________P___ -1 -24.8097 54.9302 7 7 238
1885021S16075 1885 5 SI MM NOT_NAMED 1885-01-28 06:00:00 NR -25.0000 54.6000 main 415 __________O___ -1 -25.0000 54.6000 7 7 237

About IBTrACS Database

This database is a web-friendly format of International Best Track Archive for Climate Stewardship (IBTrACS), a global best track data archive curated by NOAA dating back to 1842.

Updated: 2021-10-27